Aeroporto :
LOGIN :

Iscrizione | Disclaimer

   EN    FR    IT 

 










Sommario :    VFR   VFR Marginale   IFR   IFR Intensivo   IFR Molto Intensivo
Visibilità : 
Base nubi : 
>= 8 km
>= 3000ft
5 / 8 km
1000 / 3000 ft
1500m / 5 km
500 / 1000 ft
800 / 1500m
200 / 500 ft
< 800m
< 200 ft
Simboli :   Temporali  Nebbia  Neve Forte  Precipitazioni Forti  Vento > 20 kt
SIGMETs :   Varie  Temporali  Ghiacco  Turbolenza  Onda orograficha  Ceneri Vulcaniche






- Altitudine del aeroporto : 27 ft
- Codice IATA : PMI


LEPA - Palma de Mallorca

ULTIMO METAR :
  • 062000Z 07004KT 9999 FEW020 BKN025 13/11 Q1023 NOSIG

METARs OBSOLETI :
  • 061930Z 08004KT 9999 FEW020 BKN025 14/12 Q1023 NOSIG
  • 061900Z 04004KT 010V070 9999 FEW020 BKN025 14/12 Q1023 NOSIG
  • 061830Z 04004KT 360V060 9999 FEW020 BKN025 13/12 Q1023 NOSIG
  • 061800Z 06003KT 9999 FEW020 SCT025 14/13 Q1022 NOSIG
  • 061730Z VRB02KT 9999 SCT025 15/14 Q1022 NOSIG

TAF TAF LEPA
Valido dal 06 a 18 ore il 07 a 18 ore UTC


061700Z 0618/0718 06004KT 9999 FEW015 TX17/0713Z TN07/0706Z
TEMPO 0623/0709 4500 BR
PROB40
TEMPO 0701/0709 0800 BCFG VV002



MetMap, La meteo Aeronautica in un colpo d'occhio ! - Copyright ORBIFLY Dicembre 2007 - Disclaimer

ORBIFLY MET'MAP TEAM :

Programmazione e sviluppo : Alexandra Zaïnal
Concezione : Baudouin d'Aumeries
Aiuto per la programmazione : Marc-Olivier Méhu
Supporto tecnico e logistico : Manuel Goepfert
Aiuto per la traduzione : Arnaldo La Scala

Contatto : metmap@orbifly.com




FONTI E CREDITI :

   NOAA